Time;durP1;ratioP1;P1;durP2;ratioP2;P2;SDS_P1;SDS_P2;PMS_P1;PMS_P2;Temp;Humidity;BMP_temperature;BMP_pressure;BME280_temperature;BME280_humidity;BME280_pressure;Samples;Min_cycle;Max_cycle;Signal;HPM_P1;HPM_P2
2023/09/02 00:00:41;;;;;;;1.52;0.70;;;15.40;99.90;;;15.52;100.00;101130.94;5283920;28;20043;-54
2023/09/02 00:03:13;;;;;;;1.00;0.60;;;15.40;99.90;;;15.51;100.00;101139.66;5283942;28;20035;-54
2023/09/02 00:05:46;;;;;;;0.70;0.70;;;15.30;99.90;;;15.50;100.00;101137.00;5283415;28;20100;-54
2023/09/02 00:08:18;;;;;;;1.48;0.65;;;15.30;99.90;;;15.48;100.00;101132.59;5284806;28;20055;-54
2023/09/02 00:10:51;;;;;;;0.60;0.60;;;15.30;99.90;;;15.48;100.00;101123.84;5284047;28;20600;-55
2023/09/02 00:13:24;;;;;;;1.40;1.15;;;15.30;99.90;;;15.48;100.00;101124.72;5284716;28;20624;-54
2023/09/02 00:15:58;;;;;;;0.82;0.60;;;15.30;99.90;;;15.48;100.00;101135.22;5283622;28;20500;-54
2023/09/02 00:18:31;;;;;;;;;;;15.30;99.90;;;15.47;100.00;101124.69;5283095;28;20067;-56
2023/09/02 00:21:03;;;;;;;0.68;0.63;;;15.30;99.90;;;15.46;100.00;101126.44;5275857;28;19919;-54
2023/09/02 00:23:39;;;;;;;0.93;0.93;;;15.30;99.90;;;15.46;100.00;101123.81;5281417;28;20432;-54
2023/09/02 00:26:11;;;;;;;0.60;0.60;;;15.30;99.90;;;15.44;100.00;101120.25;5283340;28;20130;-54
2023/09/02 00:28:45;;;;;;;0.55;0.55;;;15.30;99.90;;;15.43;100.00;101122.84;5279342;28;20627;-54
2023/09/02 00:31:19;;;;;;;1.30;0.85;;;15.30;99.90;;;15.42;100.00;101121.97;5278788;28;20058;-54
2023/09/02 00:33:55;;;;;;;1.10;1.00;;;15.20;99.90;;;15.40;100.00;101121.06;5283123;28;20432;-56
2023/09/02 00:36:30;;;;;;;1.42;0.80;;;15.20;99.90;;;15.40;100.00;101110.56;5283292;28;20047;-54
2023/09/02 00:39:03;;;;;;;2.03;1.10;;;15.20;99.90;;;15.38;100.00;101106.97;5283956;28;20053;-55
2023/09/02 00:41:40;;;;;;;1.10;1.00;;;15.20;99.90;;;15.42;100.00;101115.81;5283282;28;20054;-55
2023/09/02 00:44:13;;;;;;;2.58;1.10;;;15.20;99.90;;;15.43;100.00;101115.84;5283576;28;20520;-55
2023/09/02 00:46:47;;;;;;;1.55;1.13;;;15.20;99.90;;;15.46;100.00;101115.94;5282791;28;20050;-55
2023/09/02 00:49:21;;;;;;;1.30;1.10;;;15.30;99.90;;;15.46;100.00;101115.94;5283919;28;20051;-54
2023/09/02 00:51:54;;;;;;;1.85;1.40;;;15.30;99.90;;;15.47;100.00;101115.06;5282848;28;20404;-55
2023/09/02 00:54:27;;;;;;;0.80;0.75;;;15.30;99.90;;;15.47;100.00;101114.19;5282971;28;20047;-54
2023/09/02 00:57:01;;;;;;;0.95;0.80;;;15.30;99.90;;;15.47;100.00;101112.44;5283006;28;20146;-54
2023/09/02 00:59:35;;;;;;;1.77;0.90;;;15.30;99.90;;;15.47;100.00;101112.44;5282832;28;20079;-54
2023/09/02 01:02:10;;;;;;;1.67;1.40;;;15.30;99.90;;;15.47;100.00;101106.31;5282744;28;20402;-54
2023/09/02 01:04:44;;;;;;;1.25;1.08;;;15.30;99.90;;;15.46;100.00;101118.56;5282270;28;20051;-53
2023/09/02 01:07:17;;;;;;;1.45;1.20;;;15.30;99.90;;;15.45;100.00;101108.91;5282038;28;20524;-55
2023/09/02 01:09:53;;;;;;;1.63;1.48;;;15.30;99.90;;;15.46;100.00;101105.44;5282589;28;20408;-54
2023/09/02 01:12:27;;;;;;;0.90;0.75;;;15.30;99.90;;;15.47;100.00;101099.31;5282227;28;20097;-54
2023/09/02 01:15:00;;;;;;;1.23;1.10;;;15.30;99.90;;;15.50;100.00;101105.47;5274597;28;20040;-55
2023/09/02 01:17:34;;;;;;;2.22;1.00;;;15.40;99.90;;;15.51;100.00;101115.13;5281921;28;20043;-55
2023/09/02 01:20:10;;;;;;;1.80;1.35;;;15.40;99.90;;;15.50;100.00;101119.47;5283901;28;20039;-53
2023/09/02 01:23:12;;;;;;;2.10;1.13;;;15.40;99.90;;;15.50;100.00;101121.22;5282003;28;20050;-55
2023/09/02 01:26:08;;;;;;;1.73;1.17;;;15.30;99.90;;;15.48;100.00;101129.09;5281675;28;20150;-55
2023/09/02 01:28:46;;;;;;;1.95;1.10;;;15.30;99.90;;;15.44;100.00;101122.88;5281878;28;20139;-54
2023/09/02 01:31:20;;;;;;;1.73;1.00;;;15.30;99.90;;;15.42;100.00;101132.47;5284379;28;20066;-53
2023/09/02 01:33:55;;;;;;;2.10;0.98;;;15.20;99.90;;;15.38;100.00;101138.50;5287446;28;20342;-54
2023/09/02 01:36:30;;;;;;;1.55;0.80;;;15.20;99.90;;;15.35;100.00;101141.09;5286357;28;20064;-54
2023/09/02 01:39:05;;;;;;;1.20;0.90;;;15.20;99.90;;;15.32;100.00;101143.66;5279066;28;20130;-55
2023/09/02 01:41:40;;;;;;;1.50;1.10;;;15.20;99.90;;;15.31;100.00;101148.84;5286561;28;20454;-55
2023/09/02 01:44:15;;;;;;;1.30;1.00;;;15.20;99.90;;;15.29;100.00;101151.47;5286632;28;20043;-54
2023/09/02 01:46:49;;;;;;;1.38;0.90;;;15.10;99.90;;;15.27;100.00;101145.31;5286246;28;20051;-55
2023/09/02 01:49:21;;;;;;;1.70;1.00;;;15.10;99.90;;;15.27;100.00;101149.66;5286689;28;20328;-54
2023/09/02 01:51:58;;;;;;;1.05;0.95;;;15.10;99.90;;;15.25;100.00;101154.88;5285983;28;20047;-54
2023/09/02 01:54:32;;;;;;;1.50;1.00;;;15.10;99.90;;;15.24;100.00;101153.09;5286239;28;20043;-55
2023/09/02 01:57:05;;;;;;;1.00;0.80;;;15.10;99.90;;;15.23;100.00;101156.59;5285678;28;20039;-53
2023/09/02 01:59:40;;;;;;;1.60;1.00;;;15.10;99.90;;;15.21;100.00;101155.66;5286334;28;20055;-54
2023/09/02 02:02:16;;;;;;;1.00;0.80;;;15.00;99.90;;;15.19;100.00;101152.09;5286680;28;20052;-54
2023/09/02 02:04:54;;;;;;;1.75;0.90;;;15.00;99.90;;;15.17;100.00;101153.81;5285823;28;20048;-54
2023/09/02 02:07:36;;;;;;;1.00;0.80;;;15.00;99.90;;;15.15;100.00;101159.03;5285924;28;20043;-53
2023/09/02 02:10:13;;;;;;;1.02;0.93;;;15.00;99.90;;;15.13;100.00;101159.88;5279234;28;20064;-53
2023/09/02 02:12:46;;;;;;;1.25;1.10;;;14.80;99.90;;;15.11;100.00;101166.81;5285670;28;20381;-54
2023/09/02 02:15:20;;;;;;;1.08;0.90;;;14.90;99.90;;;15.09;100.00;101165.91;5286019;28;20044;-55
2023/09/02 02:17:52;;;;;;;1.35;0.80;;;14.90;99.90;;;15.06;100.00;101171.97;5285082;28;20056;-54
2023/09/02 02:20:30;;;;;;;1.10;0.85;;;14.90;99.90;;;15.04;100.00;101172.78;5285865;28;20130;-55
2023/09/02 02:23:03;;;;;;;1.33;0.82;;;14.90;99.90;;;15.02;100.00;101175.38;5278234;28;20179;-53
2023/09/02 02:25:35;;;;;;;1.92;0.90;;;14.90;99.90;;;15.00;100.00;101178.84;5285320;28;20048;-54
2023/09/02 02:28:08;;;;;;;1.00;0.90;;;14.80;99.90;;;14.99;100.00;101172.66;5285448;28;20051;-55
2023/09/02 02:30:42;;;;;;;1.02;0.93;;;14.80;99.90;;;14.98;100.00;101170.00;5285239;28;20039;-55
2023/09/02 02:33:14;;;;;;;1.00;0.90;;;14.80;99.90;;;14.99;100.00;101169.16;5285588;28;20089;-54
2023/09/02 02:35:47;;;;;;;2.47;1.10;;;14.80;99.90;;;14.99;100.00;101163.91;5285440;28;20043;-55
2023/09/02 02:38:22;;;;;;;1.58;1.17;;;14.80;99.90;;;15.01;100.00;101168.38;5284999;28;20058;-54
2023/09/02 02:40:55;;;;;;;1.90;1.02;;;14.80;99.90;;;15.01;100.00;101168.38;5286166;28;20043;-55
2023/09/02 02:43:27;;;;;;;1.50;0.90;;;14.90;99.90;;;15.02;100.00;101169.25;5285729;28;20100;-54
2023/09/02 02:46:01;;;;;;;1.00;0.90;;;14.90;99.90;;;15.01;100.00;101172.72;5285323;28;20130;-54
2023/09/02 02:48:34;;;;;;;2.00;1.30;;;14.80;99.90;;;15.00;100.00;101168.34;5285706;28;20138;-54
2023/09/02 02:51:06;;;;;;;1.98;1.20;;;14.80;99.90;;;14.99;100.00;101163.91;5277842;28;20146;-56
2023/09/02 02:53:39;;;;;;;1.10;0.82;;;14.80;99.90;;;15.00;100.00;101160.47;5285406;28;20132;-53
2023/09/02 02:56:12;;;;;;;1.88;1.30;;;14.80;99.90;;;15.02;100.00;101164.00;5284802;28;20233;-54
2023/09/02 02:58:44;;;;;;;1.20;1.10;;;14.90;99.90;;;15.04;100.00;101171.03;5285062;28;20108;-54
2023/09/02 03:01:20;;;;;;;1.55;1.30;;;14.80;99.90;;;15.04;100.00;101164.91;5285025;28;20476;-54
2023/09/02 03:03:52;;;;;;;1.58;1.10;;;14.80;99.90;;;15.02;100.00;101169.25;5285665;27;20075;-54
2023/09/02 03:06:25;;;;;;;1.38;1.00;;;14.90;99.90;;;15.01;100.00;101172.72;5284264;28;20047;-54
2023/09/02 03:08:58;;;;;;;1.35;1.00;;;14.80;99.90;;;15.00;100.00;101168.34;5286208;28;20036;-55
2023/09/02 03:11:30;;;;;;;1.40;1.00;;;14.80;99.90;;;14.97;100.00;101177.00;5284968;28;20039;-53
2023/09/02 03:14:03;;;;;;;1.30;1.00;;;14.80;99.90;;;14.97;100.00;101178.75;5284396;28;20039;-55
2023/09/02 03:16:38;;;;;;;1.33;1.05;;;14.80;99.90;;;14.96;100.00;101191.00;5283927;28;20043;-54
2023/09/02 03:19:10;;;;;;;1.58;1.00;;;14.80;99.90;;;14.95;100.00;101194.47;5285092;28;20042;-54
2023/09/02 03:21:43;;;;;;;1.85;1.20;;;14.80;99.90;;;14.94;100.00;101197.94;5284216;28;20443;-54
2023/09/02 03:24:16;;;;;;;1.98;0.90;;;14.80;99.90;;;14.95;100.00;101185.72;5284440;28;20036;-54
2023/09/02 03:26:48;;;;;;;0.88;0.70;;;14.80;99.90;;;14.95;100.00;101191.84;5277198;28;20052;-54
2023/09/02 03:29:21;;;;;;;1.42;1.05;;;14.80;99.90;;;14.95;100.00;101181.34;5284762;28;20062;-55
2023/09/02 03:31:55;;;;;;;1.38;1.00;;;14.80;99.90;;;14.98;100.00;101185.75;5284193;28;20048;-53
2023/09/02 03:34:28;;;;;;;1.15;0.90;;;14.80;99.90;;;15.02;100.00;101191.13;5285880;28;20039;-55
2023/09/02 03:37:00;;;;;;;1.88;1.20;;;14.90;99.90;;;15.04;100.00;101184.16;5283708;28;20485;-55
2023/09/02 03:39:33;;;;;;;1.48;1.00;;;14.90;99.90;;;15.07;100.00;101194.75;5284427;28;20081;-53
2023/09/02 03:42:06;;;;;;;1.73;0.90;;;14.90;99.90;;;15.09;100.00;101198.28;5284223;28;20070;-54
2023/09/02 03:44:42;;;;;;;1.35;1.00;;;14.90;99.90;;;15.11;100.00;101196.56;5283997;28;20050;-55
2023/09/02 03:47:17;;;;;;;2.05;1.13;;;15.00;99.90;;;15.14;100.00;101204.53;5285204;28;20063;-54
2023/09/02 03:49:51;;;;;;;1.58;1.15;;;15.00;99.90;;;15.16;100.00;101201.94;5283780;28;20518;-54
2023/09/02 03:52:24;;;;;;;1.92;1.30;;;15.00;99.90;;;15.15;100.00;101203.69;5283710;28;20512;-54
2023/09/02 03:54:56;;;;;;;1.60;1.13;;;15.00;99.90;;;15.14;100.00;101207.16;5283019;28;20101;-54
2023/09/02 03:57:30;;;;;;;2.42;1.30;;;15.00;99.90;;;15.13;100.00;101207.16;5283773;28;20031;-54
2023/09/02 04:00:05;;;;;;;2.20;1.48;;;15.00;99.90;;;15.13;100.00;101209.78;5284081;28;20430;-54
2023/09/02 04:02:49;;;;;;;1.63;1.20;;;15.00;99.90;;;15.13;100.00;101201.88;5285694;28;20043;-55
2023/09/02 04:05:22;;;;;;;2.28;1.25;;;15.00;99.90;;;15.14;100.00;101201.03;5284090;28;20032;-54
2023/09/02 04:07:54;;;;;;;2.40;1.27;;;15.00;99.90;;;15.13;100.00;101208.03;5282565;28;20047;-54
2023/09/02 04:10:27;;;;;;;1.85;1.10;;;15.00;99.90;;;15.16;100.00;101199.31;5284325;28;20043;-54
2023/09/02 04:12:59;;;;;;;1.40;1.00;;;15.00;99.90;;;15.16;100.00;101204.56;5284959;28;20039;-54
2023/09/02 04:15:33;;;;;;;1.60;1.10;;;15.00;99.90;;;15.16;100.00;101215.97;5283639;28;20043;-55
2023/09/02 04:18:07;;;;;;;1.58;1.10;;;15.00;99.90;;;15.16;100.00;101205.47;5283985;28;20039;-55
2023/09/02 04:20:41;;;;;;;1.88;1.20;;;15.00;99.90;;;15.16;100.00;101194.06;5284161;28;20043;-54
2023/09/02 04:23:15;;;;;;;1.85;1.40;;;15.00;99.90;;;15.16;100.00;101201.94;5275965;28;20492;-54
2023/09/02 04:25:50;;;;;;;1.90;1.10;;;15.10;99.90;;;15.16;100.00;101194.06;5283296;28;20495;-55
2023/09/02 04:28:24;;;;;;;2.13;1.30;;;15.00;99.90;;;15.15;100.00;101190.56;5283568;28;20044;-54
2023/09/02 04:30:59;;;;;;;2.42;1.35;;;15.00;99.90;;;15.15;100.00;101192.28;5283419;28;20575;-54
2023/09/02 04:33:39;;;;;;;2.28;1.30;;;15.00;99.90;;;15.13;100.00;101201.88;5285689;28;20048;-54
2023/09/02 04:36:12;;;;;;;;;;;15.10;99.90;;;15.12;100.00;101192.22;5283548;28;20047;-55
2023/09/02 04:38:48;;;;;;;2.55;1.45;;;15.00;99.90;;;15.09;100.00;101193.03;5283020;28;19976;-55
2023/09/02 04:41:20;;;;;;;2.10;1.23;;;15.00;99.90;;;15.10;100.00;101201.81;5283551;28;20051;-55
2023/09/02 04:43:54;;;;;;;2.13;1.27;;;15.00;99.90;;;15.08;100.00;101193.91;5283198;28;20114;-56
2023/09/02 04:46:27;;;;;;;2.40;1.55;;;15.00;99.90;;;15.08;100.00;101207.03;5282882;28;20051;-55
2023/09/02 04:49:01;;;;;;;2.38;1.30;;;15.00;99.90;;;15.08;100.00;101207.03;5283429;28;20846;-55
2023/09/02 04:51:34;;;;;;;2.92;1.50;;;15.00;99.90;;;15.09;100.00;101205.28;5283624;28;20142;-55
2023/09/02 04:54:07;;;;;;;2.60;1.75;;;15.00;99.90;;;15.10;100.00;101209.69;5282883;28;20413;-54
2023/09/02 04:56:40;;;;;;;2.03;1.30;;;15.00;99.90;;;15.10;100.00;101204.44;5283107;28;20044;-55
2023/09/02 04:59:12;;;;;;;3.20;1.45;;;15.00;99.90;;;15.11;100.00;101204.47;5283298;28;20032;-54
2023/09/02 05:01:45;;;;;;;2.72;1.25;;;15.00;99.90;;;15.10;100.00;101201.81;5283118;28;20530;-55
2023/09/02 05:04:22;;;;;;;2.33;1.10;;;15.00;99.90;;;15.12;100.00;101205.34;5283879;28;20063;-54
2023/09/02 05:06:55;;;;;;;2.45;1.33;;;15.00;99.90;;;15.10;100.00;101204.44;5286378;28;20051;-54
2023/09/02 05:09:27;;;;;;;1.88;1.50;;;15.00;99.90;;;15.10;100.00;101201.81;5287731;28;20466;-54
2023/09/02 05:12:00;;;;;;;2.05;0.95;;;15.00;99.90;;;15.11;100.00;101195.69;5287066;28;20500;-54
2023/09/02 05:14:32;;;;;;;1.48;1.20;;;15.00;99.90;;;15.12;100.00;101194.84;5287243;28;20408;-54
2023/09/02 05:17:05;;;;;;;1.75;1.00;;;15.00;99.90;;;15.14;100.00;101198.41;5286551;28;20758;-55
2023/09/02 05:19:39;;;;;;;1.58;0.98;;;15.00;99.90;;;15.17;100.00;101190.59;5287147;28;20130;-55
2023/09/02 05:22:11;;;;;;;1.35;0.95;;;15.00;99.90;;;15.19;100.00;101194.13;5286934;28;20062;-55
2023/09/02 05:24:44;;;;;;;1.38;0.80;;;15.00;99.90;;;15.22;100.00;101198.56;5287176;28;20052;-54
2023/09/02 05:27:17;;;;;;;1.20;0.75;;;15.10;99.90;;;15.23;100.00;101198.59;5265933;28;20036;-55
2023/09/02 05:29:50;;;;;;;1.58;0.93;;;15.10;99.90;;;15.25;100.00;101210.00;5287141;28;20092;-54
2023/09/02 05:32:25;;;;;;;2.47;0.80;;;15.10;99.90;;;15.31;100.00;101214.53;5286864;28;20054;-54
2023/09/02 05:34:59;;;;;;;1.20;0.85;;;15.10;99.90;;;15.33;100.00;101211.09;5286973;28;20032;-54
2023/09/02 05:37:31;;;;;;;2.10;0.80;;;15.20;99.90;;;15.37;100.00;101219.91;5286156;28;20108;-54
2023/09/02 05:40:05;;;;;;;1.02;0.70;;;15.20;99.90;;;15.42;100.00;101218.28;5286622;28;20047;-54
2023/09/02 05:42:37;;;;;;;0.90;0.60;;;15.20;99.90;;;15.47;100.00;101222.78;5286778;28;20055;-55
2023/09/02 05:45:14;;;;;;;1.23;0.80;;;15.30;99.90;;;15.52;100.00;101238.66;5286131;28;20067;-54
2023/09/02 05:47:46;;;;;;;0.52;0.52;;;15.40;99.90;;;15.56;100.00;101236.97;5286299;28;20060;-55
2023/09/02 05:50:23;;;;;;;0.82;0.70;;;15.40;99.90;;;15.62;100.00;101247.66;5278483;28;20120;-54
2023/09/02 05:52:56;;;;;;;0.80;0.70;;;15.40;99.90;;;15.69;100.00;101244.28;5286145;28;20138;-53
2023/09/02 05:55:28;;;;;;;0.70;0.68;;;15.50;99.90;;;15.76;100.00;101256.69;5286638;28;20059;-54
2023/09/02 05:58:01;;;;;;;0.70;0.60;;;15.60;99.90;;;15.83;100.00;101248.09;5286135;28;20043;-55
2023/09/02 06:00:35;;;;;;;0.60;0.60;;;15.60;99.90;;;15.90;100.00;101254.34;5286240;28;20066;-55
2023/09/02 06:03:07;;;;;;;1.08;0.68;;;15.70;99.90;;;15.99;100.00;101254.56;5286070;28;20055;-54
2023/09/02 06:05:41;;;;;;;0.63;0.60;;;15.80;99.90;;;16.09;100.00;101250.34;5286437;28;20043;-54
2023/09/02 06:08:15;;;;;;;1.38;0.90;;;15.80;99.90;;;16.19;100.00;101247.06;5286232;28;20043;-54
2023/09/02 06:10:59;;;;;;;0.80;0.70;;;15.90;99.90;;;16.34;100.00;101252.59;5278395;28;20048;-55
2023/09/02 06:13:32;;;;;;;0.85;0.80;;;16.10;99.90;;;16.48;100.00;101252.84;5286874;28;20051;-54
2023/09/02 06:16:06;;;;;;;1.67;1.50;;;16.20;99.90;;;16.63;100.00;101244.34;5284782;28;20441;-54
2023/09/02 06:18:38;;;;;;;0.70;0.70;;;16.30;99.90;;;16.72;100.00;101247.16;5286442;28;20051;-54
2023/09/02 06:21:14;;;;;;;1.02;0.93;;;16.40;99.90;;;16.80;100.00;101251.69;5285585;28;20047;-54
2023/09/02 06:23:46;;;;;;;0.73;0.57;;;16.50;99.90;;;16.87;100.00;101257.94;5286264;28;20120;-54
2023/09/02 06:26:18;;;;;;;0.60;0.60;;;16.60;99.90;;;16.98;100.00;101259.00;5285521;28;20073;-52
2023/09/02 06:28:51;;;;;;;0.80;0.80;;;16.70;99.90;;;17.05;100.00;101255.59;5285741;28;20083;-55
2023/09/02 06:31:23;;;;;;;0.80;0.70;;;16.80;99.90;;;17.09;100.00;101262.72;5285747;28;20047;-54
2023/09/02 06:33:55;;;;;;;0.70;0.70;;;16.80;99.90;;;17.14;100.00;101264.50;5286009;28;20514;-54
2023/09/02 06:36:29;;;;;;;0.70;0.70;;;16.90;99.90;;;17.18;100.00;101272.47;5285790;28;20435;-53
2023/09/02 06:39:02;;;;;;;1.23;0.70;;;17.00;99.90;;;17.25;100.00;101273.47;5286166;28;20063;-54
2023/09/02 06:41:34;;;;;;;1.10;0.65;;;17.00;99.90;;;17.32;100.00;101272.69;5286146;28;20051;-53
2023/09/02 06:44:07;;;;;;;0.80;0.80;;;17.10;99.90;;;17.43;100.00;101273.75;5285361;28;20066;-54
2023/09/02 06:46:41;;;;;;;0.90;0.60;;;17.20;99.90;;;17.51;100.00;101272.09;5285233;28;20488;-54
2023/09/02 06:49:13;;;;;;;2.17;0.85;;;17.20;99.90;;;17.59;100.00;101280.97;5285288;28;20044;-54
2023/09/02 06:51:47;;;;;;;1.85;1.05;;;17.30;99.90;;;17.62;100.00;101280.16;5285899;28;20051;-53
2023/09/02 06:54:19;;;;;;;1.02;0.93;;;17.40;99.90;;;17.69;100.00;101291.69;5285358;28;20051;-54
2023/09/02 06:56:54;;;;;;;1.25;1.00;;;17.40;99.90;;;17.76;100.00;101291.81;5285681;28;20047;-54
2023/09/02 06:59:27;;;;;;;1.48;0.95;;;17.40;99.90;;;17.85;100.00;101314.75;5285476;28;20047;-53
2023/09/02 07:01:59;;;;;;;2.22;1.00;;;17.50;99.90;;;17.92;100.00;101303.44;5285201;28;20500;-53
2023/09/02 07:04:34;;;;;;;2.22;1.02;;;17.60;99.90;;;18.06;100.00;101308.88;5285732;28;20055;-55
2023/09/02 07:07:08;;;;;;;2.33;1.48;;;17.70;99.90;;;18.23;100.00;101311.72;5285052;28;20052;-55
2023/09/02 07:09:40;;;;;;;2.83;1.40;;;17.80;99.90;;;18.42;100.00;101313.72;5285730;28;20063;-55
2023/09/02 07:12:13;;;;;;;3.15;1.70;;;18.00;99.90;;;18.60;100.00;101313.91;5285313;28;20050;-55
2023/09/02 07:14:48;;;;;;;2.50;1.50;;;18.20;99.90;;;18.82;100.00;101314.13;5285715;28;20085;-54
2023/09/02 07:17:21;;;;;;;2.45;1.40;;;18.40;99.90;;;19.11;100.00;101323.22;5284304;28;20047;-55
2023/09/02 07:19:52;;;;;;;1.75;1.15;;;18.60;99.90;;;19.35;100.00;101321.63;5284920;28;20048;-56
2023/09/02 07:22:26;;;;;;;1.92;1.30;;;18.80;99.90;;;19.70;100.00;101320.13;5285344;28;20412;-54
2023/09/02 07:24:58;;;;;;;1.33;1.00;;;19.10;99.90;;;20.12;100.00;101341.50;5284542;28;20047;-53
2023/09/02 07:27:33;;;;;;;1.27;0.93;;;19.50;99.90;;;20.50;100.00;101337.25;5284715;28;20043;-54
2023/09/02 07:30:07;;;;;;;1.50;1.08;;;19.90;99.90;;;20.82;100.00;101334.69;5285130;28;20523;-53
2023/09/02 07:32:39;;;;;;;1.65;0.98;;;20.20;99.90;;;21.16;100.00;101340.00;5285125;28;20055;-55
2023/09/02 07:35:12;;;;;;;1.10;1.00;;;20.50;99.90;;;21.44;100.00;101350.59;5284433;28;20389;-53
2023/09/02 07:37:45;;;;;;;0.85;0.70;;;20.80;99.90;;;21.67;100.00;101357.66;5284213;28;20044;-55
2023/09/02 07:40:18;;;;;;;1.23;0.95;;;21.00;99.90;;;21.91;100.00;101364.69;5284140;28;20104;-56
2023/09/02 07:42:53;;;;;;;1.35;0.70;;;21.20;99.90;;;22.07;100.00;101367.28;5284799;28;20130;-56
2023/09/02 07:45:26;;;;;;;1.38;0.80;;;21.40;99.90;;;22.26;100.00;101370.78;5284084;28;20152;-55
2023/09/02 07:47:58;;;;;;;0.88;0.68;;;21.60;99.90;;;22.32;100.00;101376.06;5283736;28;20039;-55
2023/09/02 07:50:30;;;;;;;2.35;0.85;;;21.70;99.90;;;22.28;100.00;101380.50;5284696;28;20047;-54
2023/09/02 07:53:04;;;;;;;1.13;0.70;;;21.60;99.90;;;22.25;100.00;101385.84;5283858;28;20167;-55
2023/09/02 07:55:37;;;;;;;1.02;0.70;;;21.60;99.90;;;22.37;100.00;101384.91;5284574;28;20055;-55
2023/09/02 07:58:10;;;;;;;0.63;0.63;;;21.70;99.90;;;22.65;100.00;101390.97;5284015;28;20056;-55
2023/09/02 08:00:46;;;;;;;2.03;0.90;;;21.90;99.90;;;22.91;100.00;101383.75;5284613;28;20096;-56
2023/09/02 08:03:19;;;;;;;1.52;0.80;;;22.10;99.90;;;23.20;100.00;101369.34;5283926;28;20062;-55
2023/09/02 08:05:51;;;;;;;1.00;0.80;;;22.30;99.90;;;23.48;100.00;101376.22;5284387;28;20036;-55
2023/09/02 08:08:25;;;;;;;0.95;0.77;;;22.60;99.90;;;23.73;100.00;101375.97;5283596;28;20100;-56
2023/09/02 08:11:03;;;;;;;1.15;0.70;;;22.80;99.90;;;23.97;100.00;101374.84;5284180;28;20055;-55
2023/09/02 08:13:35;;;;;;;1.77;1.00;;;22.90;99.90;;;24.26;100.00;101379.84;5284052;28;20407;-54
2023/09/02 08:16:08;;;;;;;0.90;0.70;;;23.20;99.90;;;24.67;100.00;101373.97;5283425;28;20050;-56
2023/09/02 08:18:43;;;;;;;0.70;0.70;;;23.40;99.90;;;25.00;100.00;101380.59;5279796;28;20500;-55
2023/09/02 08:21:16;;;;;;;1.30;0.85;;;23.60;99.90;;;25.39;100.00;101386.22;5282136;28;20504;-55
2023/09/02 08:23:50;;;;;;;1.85;0.77;;;23.90;99.90;;;25.84;99.21;101386.34;5283998;28;20039;-55
2023/09/02 08:26:22;;;;;;;1.20;0.73;;;24.10;99.90;;;26.34;97.28;101387.09;5283600;28;20042;-56
2023/09/02 08:28:58;;;;;;;1.40;0.82;;;24.40;99.90;;;26.52;94.45;101378.72;5284270;28;20143;-55
2023/09/02 08:31:30;;;;;;;0.75;0.70;;;24.60;99.90;;;26.68;93.37;101380.16;5283773;28;20050;-55
2023/09/02 08:34:02;;;;;;;1.40;0.70;;;24.70;99.90;;;27.09;92.24;101375.66;5283373;28;20079;-56
2023/09/02 08:36:35;;;;;;;0.93;0.50;;;25.00;99.90;;;27.45;90.96;101378.28;5283210;28;20512;-55
2023/09/02 08:39:08;;;;;;;0.52;0.52;;;25.30;99.90;;;27.77;89.86;101391.75;5283955;28;20040;-55
2023/09/02 08:41:42;;;;;;;1.38;0.60;;;25.60;99.90;;;27.85;88.02;101395.13;5288064;28;20167;-54
2023/09/02 08:44:17;;;;;;;1.15;0.80;;;25.80;99.90;;;27.73;87.73;101406.16;5287917;28;20455;-54
2023/09/02 08:46:53;;;;;;;1.05;0.60;;;25.90;99.90;;;27.97;87.34;101398.34;5287250;28;20050;-54
2023/09/02 08:49:26;;;;;;;1.80;0.80;;;26.00;99.90;;;28.61;85.35;101404.56;5287937;28;20049;-56
2023/09/02 08:51:58;;;;;;;0.82;0.80;;;26.40;99.70;;;29.42;83.91;101402.00;5287794;28;20036;-55
2023/09/02 08:54:33;;;;;;;0.73;0.65;;;27.00;99.40;;;30.25;80.54;101405.34;5287798;28;20438;-55
2023/09/02 08:57:11;;;;;;;1.23;0.50;;;27.60;98.30;;;30.91;78.03;101401.03;5287006;28;20051;-56
2023/09/02 08:59:43;;;;;;;0.65;0.50;;;28.20;97.20;;;31.19;75.95;101411.53;5287990;28;20131;-56
2023/09/02 09:02:16;;;;;;;1.10;0.50;;;28.50;96.00;;;31.38;75.63;101408.97;5287229;28;20511;-56
2023/09/02 09:04:50;;;;;;;1.40;0.50;;;28.80;95.40;;;31.40;74.93;101409.78;5287403;28;20036;-55
2023/09/02 09:07:23;;;;;;;0.50;0.50;;;29.00;94.50;;;31.28;76.37;101415.66;5286331;28;20101;-56
2023/09/02 09:09:57;;;;;;;0.88;0.88;;;29.00;94.50;;;30.78;77.12;101423.97;5287586;28;20419;-56
2023/09/02 09:12:33;;;;;;;0.77;0.50;;;28.90;94.20;;;30.32;78.27;101419.44;5287084;28;20058;-55
2023/09/02 09:15:08;;;;;;;0.63;0.43;;;28.70;94.20;;;29.93;79.50;101415.47;5287044;28;20047;-55
2023/09/02 09:17:41;;;;;;;0.52;0.50;;;28.40;94.30;;;29.48;81.09;101411.66;5286780;28;20050;-55
2023/09/02 09:20:15;;;;;;;2.17;0.50;;;28.20;94.50;;;28.88;83.03;101414.44;5288432;28;20043;-54
2023/09/02 09:22:52;;;;;;;0.52;0.50;;;27.80;94.80;;;28.54;84.48;101411.03;5287574;28;20496;-54
2023/09/02 09:25:26;;;;;;;0.95;0.40;;;27.60;95.20;;;28.30;86.05;101405.47;5286801;28;20120;-55
2023/09/02 09:28:08;;;;;;;0.90;0.60;;;27.40;95.70;;;28.14;87.03;101401.44;5287350;28;20500;-53
2023/09/02 09:30:40;;;;;;;0.63;0.52;;;27.20;96.10;;;27.99;87.76;101402.78;5287018;28;20047;-55
2023/09/02 09:33:13;;;;;;;0.50;0.50;;;27.10;96.50;;;27.88;88.50;101404.84;5286468;28;20071;-56
2023/09/02 09:35:45;;;;;;;0.52;0.47;;;27.00;96.60;;;27.85;88.53;101395.13;5286906;28;20036;-56
2023/09/02 09:38:18;;;;;;;0.52;0.50;;;26.90;96.70;;;27.80;89.31;101397.03;5285732;28;20047;-56
2023/09/02 09:40:51;;;;;;;0.90;0.55;;;26.90;97.00;;;27.68;90.30;101386.66;5286961;28;20048;-55
2023/09/02 09:43:27;;;;;;;1.02;0.68;;;26.80;97.40;;;27.59;90.40;101394.91;5286619;28;20450;-55
2023/09/02 09:46:00;;;;;;;0.40;0.40;;;26.70;97.40;;;27.51;91.02;101379.03;5288272;28;20032;-56
2023/09/02 09:48:32;;;;;;;0.50;0.40;;;26.60;97.70;;;27.48;92.04;101386.28;5286557;28;20039;-55
2023/09/02 09:51:22;;;;;;;0.68;0.50;;;26.60;98.10;;;27.43;92.76;101390.84;5285538;28;20135;-54
2023/09/02 09:53:55;;;;;;;0.50;0.50;;;26.50;98.40;;;27.47;92.31;101392.56;5286726;28;20073;-54
2023/09/02 09:56:29;;;;;;;1.02;0.75;;;26.50;98.20;;;27.52;91.74;101396.00;5286000;28;20209;-55
2023/09/02 09:59:09;;;;;;;0.50;0.50;;;26.50;98.20;;;27.49;91.51;101394.25;5286847;28;20547;-55
2023/09/02 10:01:48;;;;;;;;;;;26.50;98.10;;;27.47;92.35;101397.91;5286754;28;20047;-55
2023/09/02 10:04:21;;;;;;;0.55;0.52;;;26.50;98.30;;;27.56;93.37;101400.31;5286368;28;19919;-55
2023/09/02 10:06:59;;;;;;;0.80;0.50;;;26.60;98.70;;;27.63;92.78;101399.25;5285992;28;20561;-57
2023/09/02 10:09:42;;;;;;;1.33;0.68;;;26.70;98.60;;;27.78;93.04;101403.38;5286177;28;20079;-55
2023/09/02 10:12:17;;;;;;;0.93;0.60;;;26.80;98.80;;;27.89;91.66;101411.09;5286226;28;20138;-56
2023/09/02 10:14:51;;;;;;;0.70;0.50;;;26.80;98.30;;;27.94;91.75;101425.25;5286080;28;20044;-54
2023/09/02 10:17:23;;;;;;;1.35;0.70;;;26.90;98.20;;;27.87;90.05;101432.56;5285817;28;20040;-55
2023/09/02 10:19:56;;;;;;;1.00;0.68;;;26.90;97.60;;;27.88;90.67;101434.34;5286560;28;20048;-55
2023/09/02 10:22:32;;;;;;;1.02;0.75;;;26.90;97.80;;;27.84;90.69;101430.88;5285718;28;20432;-54
2023/09/02 10:25:12;;;;;;;2.63;1.00;;;26.90;97.70;;;27.76;90.47;101427.50;5286000;28;20039;-54
2023/09/02 10:27:57;;;;;;;0.50;0.50;;;26.90;97.50;;;27.79;90.34;101422.06;5278158;28;20047;-55
2023/09/02 10:30:42;;;;;;;0.80;0.60;;;26.80;97.50;;;27.93;92.06;101423.50;5285097;28;20054;-55
2023/09/02 10:33:25;;;;;;;0.85;0.57;;;26.90;98.20;;;27.96;91.82;101428.75;5285397;28;20043;-55
2023/09/02 10:36:01;;;;;;;0.80;0.80;;;27.00;98.10;;;28.01;93.47;101421.47;5285595;28;20381;-55